Mc Carran Intl Information

FAA: LAS - ICAO: KLAS

Mc Carran Intl (Airport) Location

State Nevada
County Clark
City Las Vegas
Mc Carran Intl (Airport) is 5 miles south of Las Vegas, NV.
Latitude 36-04-48.1580N
Longitude 115-09-08.0450W
Elevation 2,181ft

Mc Carran Intl METARs

METAR KLAS 060856Z 00000KT 10SM BKN250 13/M08 A3010 RMK AO2 SLP181 T01281078 50004
Altimeter 30.10"
Temperature 12.8°C (55.0°F)
Wind 0° at 0KT
Clouds broken at 25,000ft
Visibility 10.0mi
Time observed: 2021-12-06T08:56:00Z

Mc Carran Intl (Airport) Details

Status Operational
Activation January 1947
Ownership Public
Usage Public
Chart LAS VEGAS
ATC on-site Yes
Beacon schedule sunset-sunrise
Beacon color clear green

Mc Carran Intl (Airport) Contacts

Owner CLARK COUNTY
Owner address P O BOX 11005, LAS VEGAS, NV 89111
Owner phone 702-261-5211
Manager RALPH KEYES
Manager address P.O. BOX 517, GOLDFIELD, NV 89013
Manager phone (775) 485-3406

Mc Carran Intl Radio Frequencies

Mc Carran Intl (Airport) Radio Frequencies

UNICOM 122.95
Common traffic advisory frequency (CTAF) N/A